Shelburn, Indiana
Current Conditions -  °F | °C
As of 6:55 AM on Friday 21 Nov 2014 (Local Time) from KRSV Reporting Station
Clear Clear  
Wind Chill: 16°   Ceiling: Unl
Heat Index: 16°   Visibility: 10mi
Dew Point: 11°   Wind: 0mph
Humidity: 81%   Direction: NA
Pressure: 30.46"   Gusts: NA
Location:  39.18°N, 87.39°W
Report Text: KRSV 211155Z AUTO 00000KT 10SM CLR M09/M12 A3046 RMK AO2 T10891117 11046 21099
Loading
Personal Weather Stations






























Interactive Weather Map New forecast layout! Learn more

10-Day Weather Forecast

Advertisements
Track Severe Weather on mobile